createdAt,value
2017-03-27T00:00:47.432Z,60.47
2017-03-27T00:01:47.462Z,60.57
2017-03-27T00:02:47.501Z,60.57
2017-03-27T00:03:47.529Z,60.28
2017-03-27T00:04:47.562Z,60.85
2017-03-27T00:05:47.598Z,60.95
2017-03-27T00:06:47.631Z,60.85
2017-03-27T00:07:47.672Z,61.23
2017-03-27T00:08:47.704Z,60.76
2017-03-27T00:09:47.727Z,60.66
2017-03-27T00:10:47.763Z,61.04
2017-03-27T00:11:47.799Z,60.76
2017-03-27T00:12:47.834Z,60.76
2017-03-27T00:13:47.866Z,60.66
2017-03-27T00:14:47.911Z,61.04
2017-03-27T00:15:47.927Z,60.85
2017-03-27T00:16:47.961Z,60.76
2017-03-27T00:17:48.001Z,60.95
2017-03-27T00:18:48.030Z,60.66
2017-03-27T00:19:48.064Z,60.95
2017-03-27T00:20:48.400Z,61.23
2017-03-27T00:21:48.129Z,60.95
2017-03-27T00:22:48.165Z,60.95
2017-03-27T00:23:48.196Z,60.57
2017-03-27T00:24:48.226Z,61.33
2017-03-27T00:25:48.264Z,61.14
2017-03-27T00:26:48.290Z,60.85
2017-03-27T00:27:48.336Z,61.33
2017-03-27T00:28:48.663Z,61.14
2017-03-27T00:29:48.393Z,60.57
2017-03-27T00:30:48.730Z,60.44
2017-03-27T00:31:48.456Z,60.44
2017-03-27T00:32:48.511Z,60.63
2017-03-27T00:33:48.522Z,61.01
2017-03-27T00:34:48.555Z,61.49
2017-03-27T00:35:48.602Z,60.82
2017-03-27T00:36:48.622Z,61.39
2017-03-27T00:37:48.658Z,61.2
2017-03-27T00:38:48.686Z,61.3
2017-03-27T00:39:48.720Z,61.11
2017-03-27T00:40:48.766Z,61.11
2017-03-27T00:41:48.787Z,61.49
2017-03-27T00:42:48.826Z,62.05
2017-03-27T00:43:48.854Z,61.49
2017-03-27T00:44:48.886Z,61.87
2017-03-27T00:45:48.926Z,61.87
2017-03-27T00:46:48.949Z,61.49
2017-03-27T00:47:48.988Z,61.58
2017-03-27T00:48:49.018Z,61.58
2017-03-27T00:49:49.051Z,61.87
2017-03-27T00:50:49.104Z,61.77
2017-03-27T00:51:49.116Z,62.43
2017-03-27T00:52:49.450Z,62.43
2017-03-27T00:53:49.508Z,62.15
2017-03-27T00:54:49.217Z,62.15
2017-03-27T00:55:49.243Z,62.62
2017-03-27T00:56:49.279Z,62.43
2017-03-27T00:57:49.311Z,62.34
2017-03-27T00:58:49.657Z,63.39
2017-03-27T00:59:49.382Z,62.82
2017-03-27T01:00:49.414Z,63.1
2017-03-27T01:01:49.460Z,63.29
2017-03-27T01:02:49.783Z,63.1
2017-03-27T01:03:49.810Z,63.39
2017-03-27T01:04:49.542Z,62.24
2017-03-27T01:05:49.577Z,63.1
2017-03-27T01:06:49.613Z,62.53
2017-03-27T01:07:49.637Z,63.1
2017-03-27T01:08:49.980Z,63.2
2017-03-27T01:09:49.705Z,63.29
2017-03-27T01:10:49.740Z,63.01
2017-03-27T01:11:49.773Z,63.01
2017-03-27T01:12:49.806Z,62.62
2017-03-27T01:13:50.139Z,62.91
2017-03-27T01:14:49.895Z,63.48
2017-03-27T01:15:49.904Z,63.76
2017-03-27T01:16:49.957Z,63.48
2017-03-27T01:17:49.968Z,63.57
2017-03-27T01:18:50.000Z,63.1
2017-03-27T01:19:50.043Z,63.39
2017-03-27T01:20:50.064Z,63.86
2017-03-27T01:21:50.131Z,63.57
2017-03-27T01:22:50.145Z,63.48
2017-03-27T01:23:50.166Z,63.01
2017-03-27T01:24:50.194Z,63.48
2017-03-27T01:25:50.229Z,62.91
2017-03-27T01:26:50.260Z,63.29
2017-03-27T01:27:50.294Z,63.39
2017-03-27T01:28:50.327Z,62.91
2017-03-27T01:29:50.358Z,63.29
2017-03-27T01:30:50.390Z,63.29
2017-03-27T01:31:50.428Z,63.39
2017-03-27T01:32:50.461Z,63.39
2017-03-27T01:33:50.796Z,63.67
2017-03-27T01:34:50.522Z,63.57
2017-03-27T01:35:50.578Z,63.76
2017-03-27T01:36:50.590Z,63.29
2017-03-27T01:37:50.618Z,63.67
2017-03-27T01:38:50.651Z,63.39
2017-03-27T01:39:50.685Z,63.48
2017-03-27T01:40:50.744Z,63.95
2017-03-27T01:41:50.767Z,63.95
2017-03-27T01:42:50.783Z,63.86
2017-03-27T01:43:50.817Z,63.86
2017-03-27T01:44:50.854Z,63.67
2017-03-27T01:45:50.887Z,63.48
2017-03-27T01:46:50.914Z,64.05
2017-03-27T01:47:50.946Z,63.95
2017-03-27T01:48:50.979Z,63.73
2017-03-27T01:49:51.311Z,64.43
2017-03-27T01:50:51.046Z,63.82
2017-03-27T01:51:51.075Z,63.57
2017-03-27T01:52:51.108Z,64.24
2017-03-27T01:53:51.169Z,64.14
2017-03-27T01:54:51.175Z,64.05
2017-03-27T01:55:51.209Z,64.05
2017-03-27T01:56:51.544Z,64.33
2017-03-27T01:57:51.273Z,64.05
2017-03-27T01:58:51.608Z,64.01
2017-03-27T01:59:51.335Z,63.92
2017-03-27T02:00:51.368Z,64.11
2017-03-27T02:01:51.399Z,63.64
2017-03-27T02:02:51.460Z,63.82
2017-03-27T02:03:51.765Z,64.11
2017-03-27T02:04:51.499Z,64.2
2017-03-27T02:05:51.531Z,64.01
2017-03-27T02:06:51.586Z,64.01
2017-03-27T02:07:51.596Z,64.01
2017-03-27T02:08:51.639Z,64.2
2017-03-27T02:09:51.662Z,64.78
2017-03-27T02:10:51.690Z,64.4
2017-03-27T02:11:51.724Z,64.4
2017-03-27T02:12:51.755Z,64.49
2017-03-27T02:13:51.788Z,64.4
2017-03-27T02:14:51.824Z,64.4
2017-03-27T02:15:51.868Z,64.3
2017-03-27T02:16:51.887Z,64.4
2017-03-27T02:17:51.918Z,64.97
2017-03-27T02:18:51.954Z,64.4
2017-03-27T02:19:52.287Z,64.78
2017-03-27T02:20:52.036Z,64.59
2017-03-27T02:21:52.049Z,64.87
2017-03-27T02:22:52.116Z,64.78
2017-03-27T02:23:52.112Z,64.97
2017-03-27T02:24:52.154Z,64.87
2017-03-27T02:25:52.178Z,64.49
2017-03-27T02:26:52.207Z,64.59
2017-03-27T02:27:52.545Z,64.97
2017-03-27T02:28:52.276Z,65.53
2017-03-27T02:29:52.303Z,65.44
2017-03-27T02:30:52.337Z,65.53
2017-03-27T02:31:52.369Z,65.34
2017-03-27T02:32:52.400Z,64.68
2017-03-27T02:33:52.435Z,65.16
2017-03-27T02:34:52.464Z,65.44
2017-03-27T02:35:52.506Z,65.34
2017-03-27T02:36:52.529Z,65.44
2017-03-27T02:37:52.567Z,65.25
2017-03-27T02:38:52.596Z,65.44
2017-03-27T02:39:52.627Z,65.16
2017-03-27T02:40:52.658Z,65.44
2017-03-27T02:41:52.691Z,65.53
2017-03-27T02:42:52.733Z,65.63
2017-03-27T02:43:52.754Z,65.25
2017-03-27T02:44:52.790Z,65.53
2017-03-27T02:45:52.819Z,65.53
2017-03-27T02:46:52.850Z,65.34
2017-03-27T02:47:53.190Z,65.16
2017-03-27T02:48:53.219Z,65.25
2017-03-27T02:49:52.952Z,65.25
2017-03-27T02:50:52.979Z,65.25
2017-03-27T02:51:53.009Z,65.25
2017-03-27T02:52:53.051Z,65.16
2017-03-27T02:53:53.381Z,65.25
2017-03-27T02:54:53.112Z,65.06
2017-03-27T02:55:53.139Z,65.06
2017-03-27T02:56:53.175Z,65.06
2017-03-27T02:57:53.206Z,65.25
2017-03-27T02:58:53.240Z,65.16
2017-03-27T02:59:53.269Z,65.16
2017-03-27T03:00:53.304Z,65.34
2017-03-27T03:01:53.330Z,65.25
2017-03-27T03:02:53.669Z,65.53
2017-03-27T03:03:53.404Z,65.34
2017-03-27T03:04:53.430Z,65.34
2017-03-27T03:05:53.463Z,65.53
2017-03-27T03:06:53.497Z,65.44
2017-03-27T03:07:53.526Z,65.53
2017-03-27T03:08:53.562Z,65.53
2017-03-27T03:09:53.602Z,65.25
2017-03-27T03:10:53.625Z,65.44
2017-03-27T03:11:53.652Z,65.72
2017-03-27T03:12:53.686Z,65.25
2017-03-27T03:13:53.722Z,65.16
2017-03-27T03:14:53.769Z,65.44
2017-03-27T03:15:54.087Z,65.16
2017-03-27T03:16:53.814Z,65.44
2017-03-27T03:17:53.850Z,65.53
2017-03-27T03:18:54.186Z,65.34
2017-03-27T03:19:53.915Z,65.44
2017-03-27T03:20:53.945Z,65.63
2017-03-27T03:21:53.974Z,65.34
2017-03-27T03:22:54.010Z,65.34
2017-03-27T03:23:54.041Z,65.16
2017-03-27T03:24:54.375Z,65.44
2017-03-27T03:25:54.101Z,65.41
2017-03-27T03:26:54.130Z,65.41
2017-03-27T03:27:54.176Z,65.31
2017-03-27T03:28:54.202Z,65.5
2017-03-27T03:29:54.233Z,65.41
2017-03-27T03:30:54.286Z,65.41
2017-03-27T03:31:54.294Z,65.03
2017-03-27T03:32:54.331Z,65.59
2017-03-27T03:33:54.357Z,65.88
2017-03-27T03:34:54.391Z,65.69
2017-03-27T03:35:54.424Z,65.59
2017-03-27T03:36:54.458Z,65.59
2017-03-27T03:37:54.487Z,65.69
2017-03-27T03:38:54.514Z,65.5
2017-03-27T03:39:54.560Z,65.69
2017-03-27T03:40:54.580Z,65.69
2017-03-27T03:41:54.611Z,65.5
2017-03-27T03:42:54.643Z,65.41
2017-03-27T03:43:54.679Z,65.31
2017-03-27T03:44:54.711Z,65.59
2017-03-27T03:45:54.735Z,65.97
2017-03-27T03:46:55.076Z,65.5
2017-03-27T03:47:54.807Z,65.88
2017-03-27T03:48:54.833Z,65.97
2017-03-27T03:49:54.868Z,65.88
2017-03-27T03:50:54.900Z,65.97
2017-03-27T03:51:55.243Z,65.97
2017-03-27T03:52:54.964Z,65.69
2017-03-27T03:53:54.994Z,66.07
2017-03-27T03:54:55.046Z,65.97
2017-03-27T03:55:55.075Z,66.07
2017-03-27T03:56:55.091Z,65.97
2017-03-27T03:57:55.117Z,65.78
2017-03-27T03:58:55.151Z,66.26
2017-03-27T03:59:55.185Z,65.78
2017-03-27T04:00:55.219Z,65.41
2017-03-27T04:01:55.250Z,65.88
2017-03-27T04:02:55.276Z,66.54
2017-03-27T04:03:55.328Z,66.54
2017-03-27T04:04:55.345Z,66.54
2017-03-27T04:05:55.396Z,65.59
2017-03-27T04:06:55.410Z,66.45
2017-03-27T04:07:55.437Z,66.35
2017-03-27T04:08:55.475Z,66.35
2017-03-27T04:09:55.505Z,66.26
2017-03-27T04:10:55.532Z,66.26
2017-03-27T04:11:55.560Z,66.74
2017-03-27T04:12:55.596Z,66.64
2017-03-27T04:13:55.628Z,66.64
2017-03-27T04:14:55.659Z,66.45
2017-03-27T04:15:55.686Z,66.74
2017-03-27T04:16:55.720Z,66.45
2017-03-27T04:17:55.751Z,67.21
2017-03-27T04:18:55.794Z,66.64
2017-03-27T04:19:55.827Z,67.02
2017-03-27T04:20:55.843Z,66.64
2017-03-27T04:21:55.880Z,67.02
2017-03-27T04:22:55.909Z,67.11
2017-03-27T04:23:55.953Z,66.83
2017-03-27T04:24:55.974Z,67.02
2017-03-27T04:25:56.001Z,67.02
2017-03-27T04:26:56.037Z,67.02
2017-03-27T04:27:56.067Z,67.11
2017-03-27T04:28:56.103Z,67.02
2017-03-27T04:29:56.136Z,67.11
2017-03-27T04:30:56.167Z,67.02
2017-03-27T04:31:56.206Z,66.83
2017-03-27T04:32:56.226Z,67.02
2017-03-27T04:33:56.257Z,66.93
2017-03-27T04:34:56.286Z,67.02
2017-03-27T04:35:56.317Z,67.3
2017-03-27T04:36:56.369Z,67.21
2017-03-27T04:37:56.382Z,67.21
2017-03-27T04:38:56.419Z,66.64
2017-03-27T04:39:56.445Z,67.21
2017-03-27T04:40:56.477Z,66.74
2017-03-27T04:41:56.507Z,67.4
2017-03-27T04:42:56.541Z,67.3
2017-03-27T04:43:56.576Z,67.3
2017-03-27T04:44:56.600Z,67.3
2017-03-27T04:45:56.635Z,67.3
2017-03-27T04:46:56.669Z,67.02
2017-03-27T04:47:56.699Z,67.11
2017-03-27T04:48:56.731Z,67.02
2017-03-27T04:49:56.760Z,67.21
2017-03-27T04:50:56.793Z,67.02
2017-03-27T04:51:56.827Z,67.02
2017-03-27T04:52:56.856Z,66.83
2017-03-27T04:53:56.887Z,67.11
2017-03-27T04:54:56.920Z,66.93
2017-03-27T04:55:56.975Z,67.02
2017-03-27T04:56:56.981Z,67.02
2017-03-27T04:57:57.021Z,67.3
2017-03-27T04:58:57.045Z,67.02
2017-03-27T04:59:57.076Z,67.21
2017-03-27T05:00:57.105Z,66.93
2017-03-27T05:01:57.141Z,66.93
2017-03-27T05:02:57.171Z,66.74
2017-03-27T05:03:57.200Z,66.74
2017-03-27T05:04:57.235Z,66.93
2017-03-27T05:05:57.263Z,67.02
2017-03-27T05:06:57.294Z,67.02
2017-03-27T05:07:57.647Z,66.93
2017-03-27T05:08:57.358Z,66.93
2017-03-27T05:09:57.427Z,67.21
2017-03-27T05:10:57.417Z,67.11
2017-03-27T05:11:57.454Z,67.49
2017-03-27T05:12:57.494Z,67.49
2017-03-27T05:13:57.518Z,67.49
2017-03-27T05:14:57.545Z,67.58
2017-03-27T05:15:57.651Z,67.49
2017-03-27T05:16:57.608Z,67.49
2017-03-27T05:17:57.653Z,67.58
2017-03-27T05:18:57.678Z,67.68
2017-03-27T05:19:57.703Z,68.35
2017-03-27T05:20:57.731Z,67.49
2017-03-27T05:21:57.768Z,67.58
2017-03-27T05:22:57.797Z,67.58
2017-03-27T05:23:58.131Z,67.87
2017-03-27T05:24:57.864Z,67.68
2017-03-27T05:25:57.893Z,67.87
2017-03-27T05:26:57.929Z,67.68
2017-03-27T05:27:57.956Z,67.87
2017-03-27T05:28:58.001Z,67.58
2017-03-27T05:29:58.033Z,68.06
2017-03-27T05:30:58.051Z,68.06
2017-03-27T05:31:58.082Z,67.68
2017-03-27T05:32:58.114Z,67.3
2017-03-27T05:33:58.189Z,67.68
2017-03-27T05:34:58.176Z,68.06
2017-03-27T05:35:58.211Z,68.06
2017-03-27T05:36:58.244Z,67.96
2017-03-27T05:37:58.272Z,67.4
2017-03-27T05:38:58.306Z,68.25
2017-03-27T05:39:58.335Z,67.58
2017-03-27T05:40:58.366Z,67.68
2017-03-27T05:41:58.405Z,67.68
2017-03-27T05:42:58.733Z,67.87
2017-03-27T05:43:58.472Z,68.06
2017-03-27T05:44:58.495Z,68.06
2017-03-27T05:45:58.525Z,67.4
2017-03-27T05:46:58.559Z,68.1
2017-03-27T05:47:58.589Z,68.1
2017-03-27T05:48:58.620Z,67.9
2017-03-27T05:49:58.788Z,67.71
2017-03-27T05:50:58.684Z,67.52
2017-03-27T05:51:59.033Z,67.24
2017-03-27T05:52:58.749Z,67.52
2017-03-27T05:53:59.085Z,67.62
2017-03-27T05:54:58.813Z,67.05
2017-03-27T05:55:58.845Z,67.33
2017-03-27T05:56:58.878Z,67.14
2017-03-27T05:57:58.972Z,67.71
2017-03-27T05:58:58.941Z,69.71
2017-03-27T05:59:58.977Z,71.73
2017-03-27T06:00:59.006Z,72.91
2017-03-27T06:01:59.076Z,71.84
2017-03-27T06:02:59.082Z,70.26
2017-03-27T06:03:59.112Z,68.81
2017-03-27T06:04:59.148Z,66.4
2017-03-27T06:05:59.212Z,64.94
2017-03-27T06:06:59.218Z,63.16
2017-03-27T06:07:59.552Z,61.03
2017-03-27T06:08:59.284Z,60.1
2017-03-27T06:09:59.323Z,57.84
2017-03-27T06:10:59.359Z,57.48
2017-03-27T06:11:59.393Z,55.91
2017-03-27T06:12:59.434Z,55.65
2017-03-27T06:13:59.482Z,54.53
2017-03-27T06:14:59.508Z,54.08
2017-03-27T06:15:59.851Z,52.38
2017-03-27T06:16:59.585Z,51.25
2017-03-27T06:17:59.639Z,49.43
2017-03-27T06:18:59.850Z,48.59
2017-03-27T06:19:59.854Z,48.13
2017-03-27T06:20:59.831Z,46.72
2017-03-27T06:21:59.780Z,45.85
2017-03-27T06:22:59.824Z,44.24
2017-03-27T06:24:00.158Z,42.91
2017-03-27T06:25:00.222Z,42.53
2017-03-27T06:26:00.127Z,42.74
2017-03-27T06:26:59.990Z,42.46
2017-03-27T06:28:00.354Z,41.61
2017-03-27T06:29:00.385Z,40.76
2017-03-27T06:30:00.448Z,39.91
2017-03-27T06:31:00.145Z,38.95
2017-03-27T06:32:00.183Z,38.78
2017-03-27T06:33:00.227Z,38.21
2017-03-27T06:34:00.573Z,37.06
2017-03-27T06:35:00.322Z,36.98
2017-03-27T06:36:00.373Z,35.36
2017-03-27T06:37:00.412Z,35.26
2017-03-27T06:38:00.436Z,34.58
2017-03-27T06:39:00.562Z,34.6
2017-03-27T06:40:00.524Z,33.05
2017-03-27T06:41:00.562Z,31.71
2017-03-27T06:42:00.604Z,31.13
2017-03-27T06:43:01.102Z,30.66
2017-03-27T06:44:00.802Z,30.18
2017-03-27T06:45:00.731Z,29.03
2017-03-27T06:46:00.785Z,28.07
2017-03-27T06:47:00.819Z,28.28
2017-03-27T06:48:01.167Z,27.89
2017-03-27T06:49:00.912Z,27.42
2017-03-27T06:50:01.319Z,27.22
2017-03-27T06:51:01.028Z,26.27
2017-03-27T06:52:01.041Z,25.59
2017-03-27T06:53:01.388Z,25.01
2017-03-27T06:54:01.130Z,25.6
2017-03-27T06:55:01.168Z,25.31
2017-03-27T06:56:01.216Z,25.02
2017-03-27T06:57:01.262Z,24.65
2017-03-27T06:58:01.309Z,24.26
2017-03-27T06:59:01.348Z,23.87
2017-03-27T07:00:01.700Z,23.57
2017-03-27T07:01:01.436Z,23.86
2017-03-27T07:02:01.506Z,23.76
2017-03-27T07:03:01.551Z,23.37
2017-03-27T07:04:01.879Z,22.99
2017-03-27T07:05:01.619Z,22.69
2017-03-27T07:06:01.663Z,21.53
2017-03-27T07:07:01.705Z,21.73
2017-03-27T07:08:02.059Z,21.65
2017-03-27T07:09:01.800Z,20.48
2017-03-27T07:10:01.844Z,20.88
2017-03-27T07:11:01.943Z,20.49
2017-03-27T07:12:01.938Z,20.3
2017-03-27T07:13:01.983Z,20.3
2017-03-27T07:14:02.025Z,20.01
2017-03-27T07:15:02.379Z,19.24
2017-03-27T07:16:02.116Z,19.14
2017-03-27T07:17:02.164Z,18.27
2017-03-27T07:18:02.264Z,17.78
2017-03-27T07:19:02.257Z,17.69
2017-03-27T07:20:02.302Z,17.89
2017-03-27T07:21:02.350Z,17.6
2017-03-27T07:22:02.394Z,17.02
2017-03-27T07:23:02.441Z,17.13
2017-03-27T07:24:02.489Z,16.44
2017-03-27T07:25:02.527Z,16.46
2017-03-27T07:26:02.600Z,15.87
2017-03-27T07:27:02.633Z,15.78
2017-03-27T07:28:02.673Z,15.97
2017-03-27T07:29:02.718Z,15.88
2017-03-27T07:30:02.765Z,15.97
2017-03-27T07:31:02.809Z,15.29
2017-03-27T07:32:02.864Z,15.88
2017-03-27T07:33:02.906Z,15.4
2017-03-27T07:34:02.954Z,14.91
2017-03-27T07:35:03.014Z,14.9
2017-03-27T07:36:03.049Z,14.62
2017-03-27T07:37:03.097Z,14.52
2017-03-27T07:38:03.454Z,14.33
2017-03-27T07:39:03.494Z,14.33
2017-03-27T07:40:03.238Z,14.14
2017-03-27T07:41:03.303Z,14.14
2017-03-27T07:42:03.331Z,14.14
2017-03-27T07:43:03.378Z,14.14
2017-03-27T07:44:03.445Z,14.14
2017-03-27T07:45:03.499Z,14.63
2017-03-27T07:46:03.881Z,14.43
2017-03-27T07:47:03.897Z,14.04
2017-03-27T07:48:04.114Z,13.65
2017-03-27T07:49:03.664Z,13.75
2017-03-27T07:50:03.751Z,13.75
2017-03-27T07:51:03.758Z,14.04
2017-03-27T07:52:03.805Z,13.36
2017-03-27T07:53:03.932Z,13.56
2017-03-27T07:54:03.901Z,13.37
2017-03-27T07:55:03.981Z,13.27
2017-03-27T07:56:03.996Z,12.99
2017-03-27T07:57:04.079Z,12.79
2017-03-27T07:58:04.097Z,12.6
2017-03-27T07:59:04.142Z,12.51
2017-03-27T08:00:04.189Z,12.51
2017-03-27T08:01:04.242Z,12.51
2017-03-27T08:02:04.286Z,12.8
2017-03-27T08:03:04.337Z,12.5
2017-03-27T08:04:04.392Z,12.21
2017-03-27T08:05:04.433Z,12.21
2017-03-27T08:06:04.549Z,12.5
2017-03-27T08:07:04.531Z,12.4
2017-03-27T08:08:04.581Z,11.91
2017-03-27T08:09:04.630Z,11.91
2017-03-27T08:10:04.681Z,11.82
2017-03-27T08:11:04.723Z,11.53
2017-03-27T08:12:04.771Z,11.73
2017-03-27T08:13:04.842Z,11.25
2017-03-27T08:14:04.873Z,10.86
2017-03-27T08:15:05.015Z,11.05
2017-03-27T08:16:04.974Z,11.16
2017-03-27T08:17:05.022Z,10.77
2017-03-27T08:18:05.078Z,10.47
2017-03-27T08:19:05.125Z,10.68
2017-03-27T08:20:05.171Z,10.48
2017-03-27T08:21:05.285Z,10.87
2017-03-27T08:22:05.321Z,10.68
2017-03-27T08:23:05.685Z,10.58
2017-03-27T08:24:05.380Z,10.87
2017-03-27T08:25:05.421Z,10.58
2017-03-27T08:26:05.472Z,10.87
2017-03-27T08:27:05.584Z,10.68
2017-03-27T08:28:05.569Z,10.77
2017-03-27T08:29:05.850Z,10.48
2017-03-27T08:30:05.670Z,10.28
2017-03-27T08:31:05.719Z,10.38
2017-03-27T08:32:06.375Z,10.38
2017-03-27T08:33:05.826Z,9.99
2017-03-27T08:34:05.868Z,10.58
2017-03-27T08:35:06.223Z,10.49
2017-03-27T08:36:05.985Z,10.19
2017-03-27T08:37:06.027Z,9.89
2017-03-27T08:38:06.079Z,10.58
2017-03-27T08:39:06.126Z,10.57
2017-03-27T08:40:06.175Z,10.47
2017-03-27T08:41:06.231Z,10.85
2017-03-27T08:42:06.587Z,10.46
2017-03-27T08:43:06.329Z,10.55
2017-03-27T08:44:06.376Z,10.55
2017-03-27T08:45:06.424Z,10.65
2017-03-27T08:46:06.477Z,10.46
2017-03-27T08:47:06.528Z,11.23
2017-03-27T08:48:06.576Z,11.23
2017-03-27T08:49:06.629Z,11.62
2017-03-27T08:50:06.678Z,11.62
2017-03-27T08:51:06.744Z,11.43
2017-03-27T08:52:06.792Z,11.33
2017-03-27T08:53:06.831Z,10.84
2017-03-27T08:54:06.885Z,11.33
2017-03-27T08:55:07.639Z,11.04
2017-03-27T08:56:06.982Z,10.94
2017-03-27T08:57:07.035Z,11.32
2017-03-27T08:58:07.087Z,11.22
2017-03-27T08:59:07.444Z,11.04
2017-03-27T09:00:07.188Z,11.13
2017-03-27T09:01:07.239Z,11.23
2017-03-27T09:02:07.291Z,10.94
2017-03-27T09:03:07.343Z,10.84
2017-03-27T09:04:07.395Z,10.84
2017-03-27T09:05:07.601Z,11.43
2017-03-27T09:06:07.496Z,11.32
2017-03-27T09:07:07.713Z,11.32
2017-03-27T09:08:07.599Z,11.22
2017-03-27T09:09:07.652Z,11.32
2017-03-27T09:10:07.704Z,11.52
2017-03-27T09:11:07.757Z,11.62
2017-03-27T09:12:07.832Z,11.43
2017-03-27T09:13:07.861Z,11.33
2017-03-27T09:14:07.918Z,11.13
2017-03-27T09:15:08.032Z,11.52
2017-03-27T09:16:08.017Z,11.52
2017-03-27T09:17:08.075Z,11.42
2017-03-27T09:18:08.130Z,11.52
2017-03-27T09:19:08.178Z,11.13
2017-03-27T09:20:08.231Z,11.61
2017-03-27T09:21:08.585Z,11.61
2017-03-27T09:22:08.335Z,11.32
2017-03-27T09:23:08.390Z,11.42
2017-03-27T09:24:08.444Z,11.41
2017-03-27T09:25:08.499Z,11.41
2017-03-27T09:26:08.860Z,11.51
2017-03-27T09:27:08.600Z,11.41
2017-03-27T09:28:08.656Z,11.22
2017-03-27T09:29:08.707Z,10.83
2017-03-27T09:30:08.764Z,11.12
2017-03-27T09:31:08.815Z,11.03
2017-03-27T09:32:08.873Z,11.22
2017-03-27T09:33:08.925Z,10.44
2017-03-27T09:34:08.987Z,10.44
2017-03-27T09:35:09.034Z,10.93
2017-03-27T09:36:09.087Z,10.73
2017-03-27T09:37:09.143Z,10.53
2017-03-27T09:38:09.198Z,10.44
2017-03-27T09:39:09.256Z,10.54
2017-03-27T09:40:09.307Z,10.05
2017-03-27T09:41:09.360Z,10.24
2017-03-27T09:42:09.416Z,10.24
2017-03-27T09:43:09.779Z,10.33
2017-03-27T09:44:09.829Z,10.61
2017-03-27T09:45:09.583Z,10.51
2017-03-27T09:46:09.634Z,10.31
2017-03-27T09:47:09.690Z,10.7
2017-03-27T09:48:09.744Z,10.31
2017-03-27T09:49:09.804Z,10.51
2017-03-27T09:50:09.864Z,10.7
2017-03-27T09:51:09.908Z,10.7
2017-03-27T09:52:09.965Z,10.8
2017-03-27T09:53:10.037Z,10.61
2017-03-27T09:54:10.077Z,10.41
2017-03-27T09:55:10.130Z,10.51
2017-03-27T09:56:10.187Z,10.41
2017-03-27T09:57:10.250Z,10.32
2017-03-27T09:58:10.300Z,10.41
2017-03-27T09:59:10.353Z,10.41
2017-03-27T10:00:10.410Z,10.41
2017-03-27T10:01:10.464Z,10.41
2017-03-27T10:02:10.517Z,10.41
2017-03-27T10:03:10.608Z,10.8
2017-03-27T10:04:10.631Z,10.8
2017-03-27T10:05:10.689Z,10.22
2017-03-27T10:06:10.743Z,10.22
2017-03-27T10:07:10.803Z,10.32
2017-03-27T10:08:10.861Z,10.51
2017-03-27T10:09:10.915Z,10.41
2017-03-27T10:10:10.968Z,10.31
2017-03-27T10:11:11.029Z,10.22
2017-03-27T10:12:11.082Z,9.82
2017-03-27T10:13:11.136Z,10.4
2017-03-27T10:14:11.195Z,10.39
2017-03-27T10:15:11.282Z,10.3
2017-03-27T10:16:11.312Z,11.18
2017-03-27T10:17:11.376Z,11.08
2017-03-27T10:18:11.425Z,10.88
2017-03-27T10:19:11.782Z,10.79
2017-03-27T10:20:11.535Z,10.79
2017-03-27T10:21:11.894Z,10.79
2017-03-27T10:22:11.653Z,10.5
2017-03-27T10:23:11.708Z,11.18
2017-03-27T10:24:11.766Z,10.59
2017-03-27T10:25:11.823Z,10.6
2017-03-27T10:26:11.876Z,10.88
2017-03-27T10:27:11.936Z,10.78
2017-03-27T10:28:11.994Z,10.88
2017-03-27T10:29:12.047Z,10.88
2017-03-27T10:30:12.104Z,10.97
2017-03-27T10:31:12.164Z,11.27
2017-03-27T10:32:12.223Z,11.46
2017-03-27T10:33:12.280Z,11.36
2017-03-27T10:34:12.337Z,11.84
2017-03-27T10:35:12.393Z,12.13
2017-03-27T10:36:12.453Z,12.23
2017-03-27T10:37:12.810Z,12.51
2017-03-27T10:38:12.567Z,12.23
2017-03-27T10:39:12.630Z,12.61
2017-03-27T10:40:12.678Z,12.99
2017-03-27T10:41:12.734Z,12.8
2017-03-27T10:42:13.087Z,13.38
2017-03-27T10:43:12.850Z,12.99
2017-03-27T10:44:12.904Z,13.19
2017-03-27T10:45:12.964Z,13.38
2017-03-27T10:46:13.036Z,13.29
2017-03-27T10:47:13.094Z,13.48
2017-03-27T10:48:13.134Z,13.38
2017-03-27T10:49:13.193Z,13.96
2017-03-27T10:50:13.246Z,13.67
2017-03-27T10:51:13.304Z,13.86
2017-03-27T10:52:13.377Z,13.96
2017-03-27T10:53:13.424Z,14.06
2017-03-27T10:54:13.475Z,14.06
2017-03-27T10:55:13.555Z,14.25
2017-03-27T10:56:13.587Z,14.34
2017-03-27T10:57:13.645Z,14.25
2017-03-27T10:58:13.707Z,14.15
2017-03-27T10:59:13.757Z,14.44
2017-03-27T11:00:13.813Z,13.76
2017-03-27T11:01:13.869Z,14.34
2017-03-27T11:02:13.930Z,14.15
2017-03-27T11:03:14.295Z,14.06
2017-03-27T11:04:14.049Z,14.15
2017-03-27T11:05:14.132Z,13.96
2017-03-27T11:06:14.154Z,13.86
2017-03-27T11:07:14.230Z,13.76
2017-03-27T11:08:14.271Z,13.96
2017-03-27T11:09:14.438Z,13.67
2017-03-27T11:10:14.378Z,14.15
2017-03-27T11:11:14.432Z,13.46
2017-03-27T11:12:14.491Z,13.95
2017-03-27T11:13:14.552Z,13.66
2017-03-27T11:14:14.599Z,13.85
2017-03-27T11:15:14.657Z,14.04
2017-03-27T11:16:14.710Z,14.14
2017-03-27T11:17:14.769Z,13.85
2017-03-27T11:18:14.824Z,13.56
2017-03-27T11:19:14.877Z,13.75
2017-03-27T11:20:14.927Z,13.94
2017-03-27T11:21:14.977Z,13.85
2017-03-27T11:22:15.032Z,14.23
2017-03-27T11:23:15.086Z,14.23
2017-03-27T11:24:15.140Z,14.23
2017-03-27T11:25:15.268Z,14.03
2017-03-27T11:26:15.244Z,14.32
2017-03-27T11:27:15.322Z,14.41
2017-03-27T11:28:15.350Z,14.61
2017-03-27T11:29:15.405Z,14.61
2017-03-27T11:30:15.451Z,15.19
2017-03-27T11:31:15.501Z,14.89
2017-03-27T11:32:15.558Z,14.79
2017-03-27T11:33:15.606Z,14.7
2017-03-27T11:34:15.975Z,15.08
2017-03-27T11:35:15.705Z,14.88
2017-03-27T11:36:15.757Z,14.78
2017-03-27T11:37:15.805Z,14.88
2017-03-27T11:38:15.858Z,14.78
2017-03-27T11:39:16.209Z,15.65
2017-03-27T11:40:16.079Z,15.36
2017-03-27T11:41:16.003Z,15.55
2017-03-27T11:42:16.054Z,15.73
2017-03-27T11:43:16.102Z,15.55
2017-03-27T11:44:16.149Z,15.83
2017-03-27T11:45:16.226Z,16.02
2017-03-27T11:46:16.244Z,16.5
2017-03-27T11:47:16.339Z,16.31
2017-03-27T11:48:16.690Z,16.5
2017-03-27T11:49:16.387Z,16.5
2017-03-27T11:50:16.465Z,16.5
2017-03-27T11:51:16.503Z,16.6
2017-03-27T11:52:16.537Z,16.79
2017-03-27T11:53:16.578Z,16.6
2017-03-27T11:54:16.626Z,16.89
2017-03-27T11:55:16.686Z,16.99
2017-03-27T11:56:16.726Z,17.18
2017-03-27T11:57:16.761Z,16.99
2017-03-27T11:58:16.810Z,16.89
2017-03-27T11:59:16.853Z,17.27
2017-03-27T12:00:16.907Z,17.08
2017-03-27T12:01:16.944Z,16.97
2017-03-27T12:02:16.993Z,17.07
2017-03-27T12:03:17.047Z,17.07
2017-03-27T12:04:17.084Z,17.27
2017-03-27T12:05:17.130Z,17.17
2017-03-27T12:06:17.174Z,17.65
2017-03-27T12:07:17.220Z,17.55
2017-03-27T12:08:17.266Z,17.45
2017-03-27T12:09:17.313Z,17.64
2017-03-27T12:10:17.359Z,17.64
2017-03-27T12:11:17.403Z,18.03
2017-03-27T12:12:17.448Z,18.22
2017-03-27T12:13:17.494Z,18.32
2017-03-27T12:14:17.534Z,18.32
2017-03-27T12:15:17.583Z,18.41
2017-03-27T12:16:17.622Z,18.3
2017-03-27T12:17:17.666Z,18.5
2017-03-27T12:18:17.711Z,18.3
2017-03-27T12:19:17.757Z,18.4
2017-03-27T12:20:17.799Z,18.4
2017-03-27T12:21:17.905Z,18.7
2017-03-27T12:22:17.908Z,18.88
2017-03-27T12:23:17.930Z,18.5
2017-03-27T12:24:17.973Z,18.3
2017-03-27T12:25:18.022Z,18.78
2017-03-27T12:26:18.066Z,18.68
2017-03-27T12:27:18.120Z,18.59
2017-03-27T12:28:18.147Z,18.88
2017-03-27T12:29:18.212Z,18.97
2017-03-27T12:30:18.238Z,19.07
2017-03-27T12:31:18.284Z,19.45
2017-03-27T12:32:18.320Z,19.73
2017-03-27T12:33:18.400Z,19.45
2017-03-27T12:34:18.407Z,20.12
2017-03-27T12:35:18.451Z,20.12
2017-03-27T12:36:18.524Z,20.21
2017-03-27T12:37:18.536Z,20.21
2017-03-27T12:38:18.577Z,20.21
2017-03-27T12:39:18.623Z,20.4
2017-03-27T12:40:18.668Z,20.4
2017-03-27T12:41:18.714Z,20.59
2017-03-27T12:42:18.766Z,20.78
2017-03-27T12:43:18.967Z,21.07
2017-03-27T12:44:18.834Z,21.17
2017-03-27T12:45:18.875Z,20.59
2017-03-27T12:46:18.921Z,20.68
2017-03-27T12:47:18.972Z,20.78
2017-03-27T12:48:19.015Z,21.26
2017-03-27T12:49:19.049Z,21.17
2017-03-27T12:50:19.100Z,21.36
2017-03-27T12:51:19.131Z,21.45
2017-03-27T12:52:19.176Z,21.44
2017-03-27T12:53:19.227Z,21.54
2017-03-27T12:54:19.320Z,21.65
2017-03-27T12:55:19.302Z,21.65
2017-03-27T12:56:19.345Z,21.55